createdAt,value
2018-10-07T00:00:08.641Z,13.10
2018-10-07T00:02:40.184Z,13.10
2018-10-07T00:05:11.217Z,13.10
2018-10-07T00:07:42.567Z,13.10
2018-10-07T00:10:17.565Z,13.10
2018-10-07T00:12:48.165Z,13.10
2018-10-07T00:15:19.186Z,13.10
2018-10-07T00:17:50.885Z,13.10
2018-10-07T00:20:23.484Z,13.10
2018-10-07T00:22:54.246Z,13.10
2018-10-07T00:25:26.244Z,13.20
2018-10-07T00:27:57.105Z,13.20
2018-10-07T00:30:28.006Z,13.20
2018-10-07T00:32:58.724Z,13.20
2018-10-07T00:35:30.658Z,13.30
2018-10-07T00:38:01.118Z,13.30
2018-10-07T00:40:32.778Z,13.20
2018-10-07T00:43:04.499Z,13.10
2018-10-07T00:45:35.240Z,13.10
2018-10-07T00:48:06.099Z,13.00
2018-10-07T00:50:37.779Z,13.10
2018-10-07T00:53:12.261Z,13.20
2018-10-07T00:55:44.580Z,13.20
2018-10-07T00:58:15.519Z,13.20
2018-10-07T01:00:46.540Z,13.20
2018-10-07T01:03:18.179Z,13.20
2018-10-07T01:05:49.920Z,13.30
2018-10-07T01:08:23.803Z,13.30
2018-10-07T01:10:56.179Z,13.20
2018-10-07T01:13:28.199Z,13.30
2018-10-07T01:16:00.519Z,13.20
2018-10-07T01:18:31.851Z,13.20
2018-10-07T01:21:03.459Z,13.20
2018-10-07T01:23:35.938Z,13.20
2018-10-07T01:26:07.879Z,13.20
2018-10-07T01:28:39.979Z,13.20
2018-10-07T01:31:12.539Z,13.20
2018-10-07T01:33:45.100Z,13.20
2018-10-07T01:36:17.819Z,13.20
2018-10-07T01:38:49.171Z,13.20
2018-10-07T01:41:22.119Z,13.10
2018-10-07T01:43:53.839Z,13.10
2018-10-07T01:46:29.139Z,13.10
2018-10-07T01:49:04.158Z,13.10
2018-10-07T01:51:41.278Z,13.10
2018-10-07T01:54:13.959Z,13.00
2018-10-07T01:56:47.679Z,13.00
2018-10-07T01:59:27.311Z,13.00
2018-10-07T02:02:01.720Z,12.90
2018-10-07T02:04:34.520Z,12.90
2018-10-07T02:07:07.721Z,12.90
2018-10-07T02:09:42.859Z,12.80
2018-10-07T02:12:16.503Z,12.80
2018-10-07T02:17:27.230Z,12.80
2018-10-07T02:19:59.641Z,12.80
2018-10-07T02:25:15.562Z,12.70
2018-10-07T02:27:45.701Z,12.70
2018-10-07T02:30:15.620Z,12.70
2018-10-07T02:32:45.602Z,12.60
2018-10-07T02:35:17.060Z,12.60
2018-10-07T02:37:47.179Z,12.50
2018-10-07T02:40:17.079Z,12.50
2018-10-07T02:42:47.300Z,12.60
2018-10-07T02:45:17.719Z,12.50
2018-10-07T02:47:51.579Z,12.50
2018-10-07T02:50:23.519Z,12.50
2018-10-07T02:52:55.899Z,12.50
2018-10-07T02:55:39.960Z,12.50
2018-10-07T02:58:11.680Z,12.40
2018-10-07T03:00:42.099Z,12.50
2018-10-07T03:03:11.980Z,12.50
2018-10-07T03:05:43.540Z,12.50
2018-10-07T03:08:13.279Z,12.50
2018-10-07T03:10:45.040Z,12.40
2018-10-07T03:13:14.902Z,12.40
2018-10-07T03:15:52.260Z,12.40
2018-10-07T03:18:22.201Z,12.40
2018-10-07T03:20:53.280Z,12.40
2018-10-07T03:23:23.000Z,12.40
2018-10-07T03:25:52.859Z,12.40
2018-10-07T03:28:22.881Z,12.40
2018-10-07T03:30:53.200Z,12.40
2018-10-07T03:33:22.980Z,12.40
2018-10-07T03:35:54.400Z,12.30
2018-10-07T03:38:24.481Z,12.30
2018-10-07T03:40:54.220Z,12.30
2018-10-07T03:43:29.440Z,12.30
2018-10-07T03:45:59.600Z,12.30
2018-10-07T03:48:29.560Z,12.20
2018-10-07T03:50:59.760Z,12.20
2018-10-07T03:53:29.741Z,12.20
2018-10-07T03:56:01.001Z,12.20
2018-10-07T03:58:31.840Z,12.30
2018-10-07T04:04:01.759Z,12.30
2018-10-07T04:06:31.919Z,12.30
2018-10-07T04:09:12.681Z,12.30
2018-10-07T04:11:43.920Z,12.30
2018-10-07T04:14:14.800Z,12.20
2018-10-07T04:16:46.241Z,12.20
2018-10-07T04:19:16.424Z,12.20
2018-10-07T04:21:53.780Z,12.20
2018-10-07T04:24:25.101Z,12.30
2018-10-07T04:26:55.000Z,12.30
2018-10-07T04:29:32.619Z,12.30
2018-10-07T04:32:02.785Z,12.20
2018-10-07T04:34:33.300Z,12.20
2018-10-07T04:37:04.360Z,12.10
2018-10-07T04:39:35.742Z,12.10
2018-10-07T04:42:07.122Z,12.10
2018-10-07T04:44:37.260Z,12.00
2018-10-07T04:47:07.420Z,12.00
2018-10-07T04:49:37.420Z,12.00
2018-10-07T04:52:08.679Z,12.10
2018-10-07T04:54:38.526Z,12.10
2018-10-07T04:57:12.419Z,12.10
2018-10-07T04:59:43.999Z,12.10
2018-10-07T05:02:15.024Z,12.10
2018-10-07T05:04:46.563Z,12.00
2018-10-07T05:07:19.685Z,12.10
2018-10-07T05:09:55.348Z,12.10
2018-10-07T05:12:28.209Z,12.10
2018-10-07T05:15:01.686Z,12.00
2018-10-07T05:17:35.966Z,12.00
2018-10-07T05:20:07.992Z,12.00
2018-10-07T05:22:40.165Z,12.00
2018-10-07T05:25:13.430Z,12.00
2018-10-07T05:27:45.123Z,12.00
2018-10-07T05:30:18.027Z,12.00
2018-10-07T05:32:51.042Z,12.10
2018-10-07T05:35:25.244Z,12.10
2018-10-07T05:37:56.601Z,12.10
2018-10-07T05:40:30.288Z,12.10
2018-10-07T05:43:07.225Z,12.20
2018-10-07T05:45:44.102Z,12.20
2018-10-07T05:48:16.322Z,12.20
2018-10-07T05:50:51.708Z,12.30
2018-10-07T05:53:27.022Z,12.40
2018-10-07T05:55:59.204Z,12.50
2018-10-07T05:58:31.503Z,12.50
2018-10-07T06:01:09.838Z,12.50
2018-10-07T06:03:57.602Z,12.50
2018-10-07T06:06:31.441Z,12.50
2018-10-07T06:09:05.842Z,12.50
2018-10-07T06:11:39.061Z,12.50
2018-10-07T06:16:24.642Z,12.50
2018-10-07T06:18:59.726Z,12.50
2018-10-07T06:24:14.866Z,12.60
2018-10-07T06:26:47.563Z,12.60
2018-10-07T06:29:19.924Z,12.70
2018-10-07T06:31:55.717Z,12.70
2018-10-07T06:34:33.944Z,12.70
2018-10-07T06:37:09.943Z,12.70
2018-10-07T06:39:40.018Z,12.80
2018-10-07T06:42:10.023Z,12.80
2018-10-07T06:44:39.943Z,12.80
2018-10-07T06:47:09.843Z,12.80
2018-10-07T06:49:40.009Z,12.90
2018-10-07T06:52:10.064Z,12.90
2018-10-07T06:54:40.423Z,12.90
2018-10-07T06:57:10.505Z,12.90
2018-10-07T06:59:41.323Z,12.90
2018-10-07T07:02:11.305Z,13.00
2018-10-07T07:04:43.344Z,13.00
2018-10-07T07:07:13.424Z,13.00
2018-10-07T07:09:43.264Z,13.10
2018-10-07T07:12:13.366Z,13.20
2018-10-07T07:14:44.304Z,13.30
2018-10-07T07:17:14.064Z,13.70
2018-10-07T07:19:44.132Z,14.30
2018-10-07T07:24:47.765Z,15.50
2018-10-07T07:27:17.724Z,15.50
2018-10-07T07:29:48.581Z,15.40
2018-10-07T07:32:18.404Z,16.90
2018-10-07T07:34:48.487Z,16.80
2018-10-07T07:37:18.304Z,17.00
2018-10-07T07:39:48.085Z,17.10
2018-10-07T07:42:18.236Z,17.40
2018-10-07T07:44:48.486Z,17.50
2018-10-07T07:47:18.284Z,17.20
2018-10-07T07:49:48.233Z,16.90
2018-10-07T07:52:18.404Z,16.50
2018-10-07T07:54:48.206Z,16.20
2018-10-07T07:57:18.164Z,16.00
2018-10-07T07:59:52.324Z,15.90
2018-10-07T08:02:22.509Z,16.00
2018-10-07T08:04:52.971Z,16.30
2018-10-07T08:07:23.013Z,16.60
2018-10-07T08:09:53.452Z,16.60
2018-10-07T08:12:23.314Z,16.60
2018-10-07T08:14:54.890Z,16.50
2018-10-07T08:17:26.318Z,16.50
2018-10-07T08:19:57.606Z,16.60
2018-10-07T08:22:28.566Z,16.60
2018-10-07T08:24:58.825Z,16.60
2018-10-07T08:27:29.575Z,16.50
2018-10-07T08:29:59.946Z,16.40
2018-10-07T08:32:29.866Z,16.20
2018-10-07T08:34:59.743Z,16.10
2018-10-07T08:37:29.726Z,16.00
2018-10-07T08:39:59.727Z,16.00
2018-10-07T08:42:30.865Z,16.00
2018-10-07T08:45:01.853Z,16.00
2018-10-07T08:47:32.025Z,16.30
2018-10-07T08:50:02.046Z,16.60
2018-10-07T08:52:32.160Z,17.00
2018-10-07T08:55:02.288Z,17.30
2018-10-07T08:57:32.325Z,17.50
2018-10-07T09:00:02.185Z,17.60
2018-10-07T09:02:33.247Z,17.50
2018-10-07T09:05:04.386Z,17.40
2018-10-07T09:07:34.432Z,17.30
2018-10-07T09:10:04.668Z,17.40
2018-10-07T09:12:34.487Z,17.50
2018-10-07T09:15:04.546Z,17.40
2018-10-07T09:17:34.446Z,17.30
2018-10-07T09:20:06.128Z,17.20
2018-10-07T09:22:36.146Z,17.20
2018-10-07T09:25:07.246Z,17.10
2018-10-07T09:27:37.671Z,17.20
2018-10-07T09:30:07.786Z,17.40
2018-10-07T09:32:37.952Z,17.70
2018-10-07T09:35:09.207Z,18.10
2018-10-07T09:37:39.367Z,18.30
2018-10-07T09:40:10.427Z,18.30
2018-10-07T09:42:41.446Z,18.10
2018-10-07T09:45:11.846Z,17.80
2018-10-07T09:47:42.886Z,18.00
2018-10-07T09:50:12.968Z,18.20
2018-10-07T09:52:43.135Z,18.40
2018-10-07T09:55:14.306Z,18.60
2018-10-07T09:57:45.386Z,18.40
2018-10-07T10:00:21.024Z,18.50
2018-10-07T10:02:52.329Z,18.70
2018-10-07T10:05:22.348Z,18.90
2018-10-07T10:07:53.449Z,19.20
2018-10-07T10:10:23.308Z,19.30
2018-10-07T10:12:53.289Z,19.50
2018-10-07T10:15:23.329Z,19.60
2018-10-07T10:17:57.772Z,19.70
2018-10-07T10:20:31.529Z,19.80
2018-10-07T10:23:08.508Z,19.80
2018-10-07T10:27:56.338Z,19.90
2018-10-07T10:32:37.808Z,20.00
2018-10-07T10:35:30.088Z,19.90
2018-10-07T10:38:19.349Z,19.80
2018-10-07T10:40:59.349Z,19.80
2018-10-07T10:44:04.328Z,19.80
2018-10-07T10:47:11.468Z,19.90
2018-10-07T10:49:51.787Z,20.20
2018-10-07T10:52:34.342Z,20.30
2018-10-07T10:55:21.861Z,20.30
2018-10-07T10:57:55.982Z,20.40
2018-10-07T11:00:33.042Z,20.40
2018-10-07T11:03:22.869Z,20.50
2018-10-07T11:06:00.472Z,20.50
2018-10-07T11:08:39.161Z,20.50
2018-10-07T11:11:16.917Z,20.40
2018-10-07T11:14:31.568Z,20.40
2018-10-07T11:17:13.429Z,20.30
2018-10-07T11:19:55.331Z,20.20
2018-10-07T11:22:36.888Z,20.20
2018-10-07T11:25:13.748Z,20.20
2018-10-07T11:28:01.090Z,20.20
2018-10-07T11:30:34.130Z,20.20
2018-10-07T11:35:16.090Z,20.20
2018-10-07T11:37:54.910Z,20.20
2018-10-07T11:40:35.059Z,20.40
2018-10-07T11:43:10.504Z,20.40
2018-10-07T11:45:49.513Z,20.50
2018-10-07T11:49:44.064Z,20.50
2018-10-07T11:52:24.323Z,20.30
2018-10-07T11:54:58.411Z,20.30
2018-10-07T11:57:29.622Z,20.30
2018-10-07T12:00:00.504Z,20.40
2018-10-07T12:02:30.493Z,20.40
2018-10-07T12:05:00.507Z,20.20
2018-10-07T12:07:32.032Z,20.10
2018-10-07T12:10:02.116Z,20.10
2018-10-07T12:12:31.985Z,20.10
2018-10-07T12:17:36.146Z,20.30
2018-10-07T12:20:07.724Z,20.20
2018-10-07T12:22:37.679Z,20.10
2018-10-07T12:25:07.694Z,20.10
2018-10-07T12:27:38.004Z,20.20
2018-10-07T12:30:08.485Z,20.20
2018-10-07T12:32:38.605Z,20.30
2018-10-07T12:35:09.393Z,20.20
2018-10-07T12:37:40.187Z,20.00
2018-10-07T12:40:11.104Z,20.00
2018-10-07T12:42:42.452Z,20.00
2018-10-07T12:45:13.426Z,20.10
2018-10-07T12:47:45.864Z,20.20
2018-10-07T12:50:16.020Z,20.10
2018-10-07T12:52:46.240Z,20.10
2018-10-07T12:55:17.283Z,20.10
2018-10-07T12:57:47.083Z,20.10
2018-10-07T13:00:17.272Z,20.20
2018-10-07T13:02:47.421Z,20.30
2018-10-07T13:05:17.508Z,20.40
2018-10-07T13:07:47.348Z,20.50
2018-10-07T13:10:17.219Z,20.50
2018-10-07T13:12:47.201Z,20.50
2018-10-07T13:15:18.600Z,20.50
2018-10-07T13:17:49.599Z,20.50
2018-10-07T13:20:20.239Z,20.50
2018-10-07T13:22:50.401Z,20.40
2018-10-07T13:25:21.360Z,20.20
2018-10-07T13:27:51.199Z,20.30
2018-10-07T13:30:22.239Z,20.30
2018-10-07T13:32:53.601Z,20.40
2018-10-07T13:35:24.319Z,20.50
2018-10-07T13:37:59.824Z,20.50
2018-10-07T13:40:29.920Z,20.50
2018-10-07T13:42:59.941Z,20.60
2018-10-07T13:45:30.081Z,20.70
2018-10-07T13:48:01.021Z,20.70
2018-10-07T13:50:36.181Z,20.60
2018-10-07T13:53:07.300Z,20.60
2018-10-07T13:55:38.080Z,20.60
2018-10-07T13:58:08.099Z,20.70
2018-10-07T14:00:38.264Z,20.70
2018-10-07T14:03:09.144Z,20.70
2018-10-07T14:05:39.029Z,20.70
2018-10-07T14:08:10.086Z,20.60
2018-10-07T14:10:41.186Z,20.60
2018-10-07T14:13:12.804Z,20.60
2018-10-07T14:18:16.805Z,20.50
2018-10-07T14:20:48.404Z,20.40
2018-10-07T14:23:19.535Z,20.30
2018-10-07T14:25:51.007Z,20.30
2018-10-07T14:28:21.346Z,20.30
2018-10-07T14:30:53.274Z,20.30
2018-10-07T14:33:23.366Z,20.20
2018-10-07T14:35:53.308Z,20.20
2018-10-07T14:38:24.487Z,20.20
2018-10-07T14:40:55.226Z,20.20
2018-10-07T14:43:25.933Z,20.20
2018-10-07T14:45:55.923Z,20.10
2018-10-07T14:48:26.082Z,20.10
2018-10-07T14:50:56.030Z,20.10
2018-10-07T14:53:27.442Z,20.10
2018-10-07T14:55:58.303Z,20.10
2018-10-07T14:58:28.241Z,20.00
2018-10-07T15:00:58.459Z,20.00
2018-10-07T15:03:29.427Z,20.00
2018-10-07T15:06:00.273Z,19.60
2018-10-07T15:08:30.566Z,19.30
2018-10-07T15:11:10.207Z,19.30
2018-10-07T15:13:53.412Z,19.20
2018-10-07T15:16:27.685Z,19.10
2018-10-07T15:21:39.015Z,18.90
2018-10-07T15:24:11.024Z,18.80
2018-10-07T15:26:42.044Z,18.70
2018-10-07T15:29:13.172Z,18.60
2018-10-07T15:31:44.465Z,18.50
2018-10-07T15:34:15.538Z,18.50
2018-10-07T15:36:48.013Z,18.40
2018-10-07T15:39:23.143Z,18.30
2018-10-07T15:41:58.684Z,18.30
2018-10-07T15:44:30.004Z,18.30
2018-10-07T15:47:04.875Z,18.20
2018-10-07T15:49:36.767Z,18.20
2018-10-07T15:52:11.164Z,18.00
2018-10-07T15:54:43.363Z,18.00
2018-10-07T15:57:17.765Z,18.00
2018-10-07T15:59:50.651Z,17.90
2018-10-07T16:02:22.570Z,17.90
2018-10-07T16:05:02.155Z,17.80
2018-10-07T16:07:39.709Z,17.80
2018-10-07T16:10:17.449Z,17.70
2018-10-07T16:12:51.451Z,17.70
2018-10-07T16:15:28.349Z,17.70
2018-10-07T16:18:06.551Z,17.60
2018-10-07T16:20:45.172Z,17.60
2018-10-07T16:23:27.872Z,17.60
2018-10-07T16:26:09.239Z,17.60
2018-10-07T16:28:44.631Z,17.60
2018-10-07T16:31:21.443Z,17.50
2018-10-07T16:36:32.060Z,17.50
2018-10-07T16:39:04.550Z,17.50
2018-10-07T16:41:40.566Z,17.50
2018-10-07T16:44:15.860Z,17.50
2018-10-07T16:46:53.043Z,17.50
2018-10-07T16:49:28.841Z,17.50
2018-10-07T16:52:02.340Z,17.40
2018-10-07T16:54:36.361Z,17.40
2018-10-07T16:57:08.720Z,17.30
2018-10-07T16:59:40.318Z,17.20
2018-10-07T17:02:16.321Z,17.20
2018-10-07T17:04:51.702Z,17.10
2018-10-07T17:07:23.363Z,17.00
2018-10-07T17:10:01.783Z,17.00
2018-10-07T17:12:36.644Z,17.00
2018-10-07T17:15:11.201Z,17.00
2018-10-07T17:17:45.682Z,16.90
2018-10-07T17:20:20.383Z,16.80
2018-10-07T17:23:00.122Z,16.80
2018-10-07T17:25:36.822Z,16.80
2018-10-07T17:28:16.403Z,16.70
2018-10-07T17:30:51.382Z,16.70
2018-10-07T17:36:03.967Z,16.70
2018-10-07T17:38:38.643Z,16.60
2018-10-07T17:41:10.707Z,16.60
2018-10-07T17:43:42.576Z,16.60
2018-10-07T17:46:14.981Z,16.60
2018-10-07T17:48:50.173Z,16.50
2018-10-07T17:51:28.943Z,16.50
2018-10-07T17:54:04.647Z,16.50
2018-10-07T17:56:37.001Z,16.50
2018-10-07T17:59:12.164Z,16.50
2018-10-07T18:01:46.443Z,16.50
2018-10-07T18:04:18.828Z,16.40
2018-10-07T18:09:36.345Z,16.40
2018-10-07T18:12:12.988Z,16.50
2018-10-07T18:14:55.187Z,16.40
2018-10-07T18:17:38.906Z,16.40
2018-10-07T18:20:29.426Z,16.30
2018-10-07T18:23:15.027Z,16.30
2018-10-07T18:26:14.626Z,16.30
2018-10-07T18:34:47.901Z,16.20
2018-10-07T18:37:17.988Z,16.30
2018-10-07T18:39:47.826Z,16.30
2018-10-07T18:42:17.948Z,16.30
2018-10-07T18:44:47.896Z,16.30
2018-10-07T18:47:17.625Z,16.30
2018-10-07T18:49:47.744Z,16.20
2018-10-07T18:52:17.505Z,16.20
2018-10-07T18:54:48.710Z,16.20
2018-10-07T18:57:20.792Z,16.20
2018-10-07T18:59:50.746Z,16.20
2018-10-07T19:02:20.463Z,16.20
2018-10-07T19:04:50.325Z,16.10
2018-10-07T19:07:20.074Z,16.10
2018-10-07T19:09:50.149Z,16.10
2018-10-07T19:12:20.160Z,16.10
2018-10-07T19:14:51.364Z,16.10
2018-10-07T19:17:22.244Z,16.10
2018-10-07T19:19:52.234Z,16.00
2018-10-07T19:22:22.214Z,16.00
2018-10-07T19:24:52.327Z,15.90
2018-10-07T19:27:23.123Z,15.90
2018-10-07T19:29:52.803Z,15.80
2018-10-07T19:32:25.489Z,15.80
2018-10-07T19:34:56.448Z,15.80
2018-10-07T19:37:27.290Z,15.80
2018-10-07T19:39:57.100Z,15.70
2018-10-07T19:42:26.743Z,15.70
2018-10-07T19:44:56.561Z,15.70
2018-10-07T19:47:27.781Z,15.70
2018-10-07T19:49:57.565Z,15.60
2018-10-07T19:52:30.959Z,15.60
2018-10-07T19:55:09.340Z,15.60
2018-10-07T19:57:39.780Z,15.60
2018-10-07T20:00:10.742Z,15.60
2018-10-07T20:02:40.212Z,15.50
2018-10-07T20:05:13.787Z,15.50
2018-10-07T20:07:43.598Z,15.50
2018-10-07T20:10:13.922Z,15.50
2018-10-07T20:12:44.971Z,15.50
2018-10-07T20:15:14.666Z,15.50
2018-10-07T20:17:44.463Z,15.50
2018-10-07T20:20:15.300Z,15.50
2018-10-07T20:22:45.265Z,15.40
2018-10-07T20:25:16.580Z,15.40
2018-10-07T20:27:46.402Z,15.40
2018-10-07T20:30:17.039Z,15.40
2018-10-07T20:32:46.880Z,15.30
2018-10-07T20:35:16.818Z,15.30
2018-10-07T20:37:48.018Z,15.20
2018-10-07T20:40:18.117Z,15.20
2018-10-07T20:42:49.164Z,15.20
2018-10-07T20:45:20.139Z,15.10
2018-10-07T20:47:50.241Z,15.10
2018-10-07T20:50:20.000Z,15.10
2018-10-07T20:52:50.120Z,15.10
2018-10-07T20:55:20.160Z,15.00
2018-10-07T20:57:50.019Z,15.00
2018-10-07T21:00:20.463Z,15.00
2018-10-07T21:02:50.511Z,14.90
2018-10-07T21:05:20.482Z,14.90
2018-10-07T21:07:50.202Z,14.90
2018-10-07T21:10:20.242Z,14.90
2018-10-07T21:12:50.286Z,14.90
2018-10-07T21:15:20.162Z,14.80
2018-10-07T21:17:50.223Z,14.80
2018-10-07T21:20:21.520Z,14.80
2018-10-07T21:22:51.660Z,14.70
2018-10-07T21:25:25.718Z,14.70
2018-10-07T21:27:55.579Z,14.70
2018-10-07T21:30:25.439Z,14.70
2018-10-07T21:32:55.466Z,14.70
2018-10-07T21:35:25.398Z,14.70
2018-10-07T21:37:55.259Z,14.60
2018-10-07T21:40:25.439Z,14.60
2018-10-07T21:42:55.538Z,14.60
2018-10-07T21:45:25.407Z,14.60
2018-10-07T21:47:55.358Z,14.60
2018-10-07T21:50:25.999Z,14.60
2018-10-07T21:52:56.078Z,14.50
2018-10-07T21:55:27.199Z,14.60
2018-10-07T21:57:57.258Z,14.60
2018-10-07T22:00:28.093Z,14.50
2018-10-07T22:02:57.920Z,14.60
2018-10-07T22:05:30.079Z,14.60
2018-10-07T22:07:59.940Z,14.60
2018-10-07T22:10:29.700Z,14.60
2018-10-07T22:12:59.682Z,14.50
2018-10-07T22:15:29.759Z,14.50
2018-10-07T22:17:59.843Z,14.60
2018-10-07T22:20:29.803Z,14.60
2018-10-07T22:23:00.761Z,14.50
2018-10-07T22:25:34.979Z,14.50
2018-10-07T22:28:04.959Z,14.50
2018-10-07T22:30:34.778Z,14.50
2018-10-07T22:33:04.739Z,14.50
2018-10-07T22:35:35.919Z,14.50
2018-10-07T22:38:05.699Z,14.50
2018-10-07T22:40:35.980Z,14.50
2018-10-07T22:43:07.341Z,14.50
2018-10-07T22:45:38.399Z,14.50
2018-10-07T22:48:12.665Z,14.50
2018-10-07T22:50:42.679Z,14.50
2018-10-07T22:53:13.746Z,14.50
2018-10-07T22:55:43.779Z,14.50
2018-10-07T22:58:13.959Z,14.50
2018-10-07T23:00:43.987Z,14.40
2018-10-07T23:03:14.939Z,14.40
2018-10-07T23:05:44.779Z,14.40
2018-10-07T23:08:15.699Z,14.40
2018-10-07T23:10:45.859Z,14.40
2018-10-07T23:13:21.119Z,14.40
2018-10-07T23:15:51.142Z,14.40
2018-10-07T23:18:22.419Z,14.40
2018-10-07T23:20:52.259Z,14.40
2018-10-07T23:23:26.559Z,14.40
2018-10-07T23:25:56.318Z,14.40
2018-10-07T23:28:30.458Z,14.40
2018-10-07T23:31:00.343Z,14.40
2018-10-07T23:33:30.198Z,14.40
2018-10-07T23:35:59.991Z,14.40
2018-10-07T23:38:32.224Z,14.40
2018-10-07T23:41:03.279Z,14.30
2018-10-07T23:43:33.279Z,14.40
2018-10-07T23:46:04.001Z,14.40
2018-10-07T23:48:43.539Z,14.30
2018-10-07T23:51:13.447Z,14.30
2018-10-07T23:53:43.459Z,14.30
2018-10-07T23:56:13.579Z,14.30
2018-10-07T23:58:43.439Z,14.30
